Raglesville, Indiana
Current Conditions -  °F | °C
As of 12:55 AM on Friday 31 Oct 2014 (Local Time) from KDCY Reporting Station
Moderate Rain Moderate Rain  
Wind Chill: 46°   Ceiling: 5500
Heat Index: 46°   Visibility: 7mi
Dew Point: 45°   Wind: 0mph
Humidity: 94%   Direction: NA
Pressure: 30.04"   Gusts: NA
Location:  38.8205°N, 86.9659°W
Report Text: KDCY 310555Z AUTO 00000KT 7SM RA SCT038 SCT046 OVC055 08/07 A3004 RMK AO2 P0001 60001 T00800071 10108 20080 401330001
Loading
Personal Weather Stations






























Interactive Weather Map
Tropical Storm Tracking
New forecast layout! Learn more

10-Day Weather Forecast

Advertisements
Track Severe Weather on mobile